Time;durP1;ratioP1;P1;durP2;ratioP2;P2;SDS_P1;SDS_P2;PMS_P1;PMS_P2;Temp;Humidity;BMP_temperature;BMP_pressure;BME280_temperature;BME280_humidity;BME280_pressure;Samples;Min_cycle;Max_cycle;Signal;HPM_P1;HPM_P2
2023/04/23 00:00:42;;;;;;;12.50;7.27;;;;;;;13.53;100.00;100575.25;7391820;19;20429;-36
2023/04/23 00:03:13;;;;;;;11.60;7.03;;;;;;;13.54;100.00;100574.41;7394464;19;20798;-36
2023/04/23 00:05:45;;;;;;;12.63;7.63;;;;;;;13.60;100.00;100571.13;7391040;19;20448;-36
2023/04/23 00:08:17;;;;;;;11.47;7.47;;;;;;;13.63;100.00;100564.28;7394046;19;20439;-36
2023/04/23 00:10:47;;;;;;;11.40;7.70;;;;;;;13.56;100.00;100583.13;7390756;19;20453;-36
2023/04/23 00:13:17;;;;;;;12.00;8.60;;;;;;;13.54;100.00;100577.00;7392708;19;20458;-35
2023/04/23 00:15:48;;;;;;;10.47;8.07;;;;;;;13.53;100.00;100583.03;7390053;19;20443;-37
2023/04/23 00:18:18;;;;;;;16.93;9.30;;;;;;;13.48;100.00;100589.78;7389420;19;20400;-36
2023/04/23 00:20:48;;;;;;;12.27;8.27;;;;;;;13.46;100.00;100588.88;7390307;19;20486;-35
2023/04/23 00:23:20;;;;;;;10.33;7.90;;;;;;;13.48;100.00;100582.00;7392415;19;20439;-37
2023/04/23 00:25:50;;;;;;;13.93;8.73;;;;;;;13.48;100.00;100597.56;7390671;19;20443;-35
2023/04/23 00:28:19;;;;;;;13.50;8.80;;;;;;;13.49;100.00;100599.34;7393077;19;20404;-35
2023/04/23 00:30:50;;;;;;;13.40;8.77;;;;;;;13.42;100.00;100603.44;7387591;19;20461;-37
2023/04/23 00:33:20;;;;;;;14.20;9.33;;;;;;;13.39;100.00;100610.25;7392306;19;20451;-35
2023/04/23 00:35:50;;;;;;;13.27;9.30;;;;;;;13.37;100.00;100623.16;7393371;19;20451;-37
2023/04/23 00:38:22;;;;;;;13.07;9.50;;;;;;;13.33;100.00;100629.97;7392109;19;20396;-36
2023/04/23 00:40:52;;;;;;;13.87;9.07;;;;;;;13.28;100.00;100626.34;7389580;19;20451;-36
2023/04/23 00:43:22;;;;;;;14.73;10.20;;;;;;;13.29;100.00;100617.78;7392273;19;20458;-37
2023/04/23 00:45:52;;;;;;;15.63;9.53;;;;;;;13.23;100.00;100608.09;7390855;19;20443;-35
2023/04/23 00:48:22;;;;;;;13.00;10.10;;;;;;;13.21;100.00;100598.53;7392173;19;20411;-35
2023/04/23 00:51:00;;;;;;;22.50;10.40;;;;;;;13.19;100.00;100592.44;7390220;19;20451;-35
2023/04/23 00:53:32;;;;;;;14.57;9.90;;;;;;;13.20;100.00;100565.69;7393822;19;20410;-36
2023/04/23 00:56:03;;;;;;;14.13;10.20;;;;;;;13.10;100.00;100549.91;7389646;19;20985;-36
2023/04/23 00:58:33;;;;;;;15.80;10.80;;;;;;;13.05;100.00;100510.03;7393089;19;20424;-36
2023/04/23 01:01:04;;;;;;;19.40;12.00;;;;;;;13.06;100.00;100490.19;7389145;19;20456;-36
2023/04/23 01:03:34;;;;;;;19.20;12.90;;;;;;;13.04;100.00;100448.72;7393073;19;20423;-35
2023/04/23 01:06:05;;;;;;;17.13;12.20;;;;;;;13.04;100.00;100409.88;7389760;19;20439;-36
2023/04/23 01:08:37;;;;;;;17.57;12.47;;;;;;;13.02;100.00;100380.47;7394335;19;20411;-37
2023/04/23 01:11:07;;;;;;;19.40;14.30;;;;;;;12.98;100.00;100352.75;7389629;19;20460;-36
2023/04/23 01:13:37;;;;;;;20.40;13.10;;;;;;;12.94;100.00;100325.03;7394243;19;20403;-36
2023/04/23 01:16:07;;;;;;;20.13;13.43;;;;;;;12.94;100.00;100301.72;7390111;19;20479;-36
2023/04/23 01:18:39;;;;;;;19.23;13.43;;;;;;;12.92;100.00;100274.91;7394118;19;20439;-35
2023/04/23 01:21:10;;;;;;;21.07;13.90;;;;;;;12.89;100.00;100269.66;7389839;19;20472;-36
2023/04/23 01:23:42;;;;;;;21.63;14.33;;;;;;;12.88;100.00;100253.25;7394811;19;20964;-36
2023/04/23 01:26:13;;;;;;;23.70;14.80;;;;;;;12.88;100.00;100236.84;7388577;19;20802;-37
2023/04/23 01:28:44;;;;;;;20.43;14.03;;;;;;;12.90;100.00;100223.09;7396497;19;20435;-37
2023/04/23 01:31:14;;;;;;;21.20;13.70;;;;;;;12.89;100.00;100207.50;7396826;19;20431;-36
2023/04/23 01:33:45;;;;;;;20.93;13.90;;;;;;;12.87;100.00;100193.66;7400422;19;20429;-36
2023/04/23 01:36:15;;;;;;;21.27;14.10;;;;;;;12.86;100.00;100177.25;7395613;19;21254;-36
2023/04/23 01:38:47;;;;;;;22.40;15.63;;;;;;;12.85;100.00;100172.91;7400260;19;20428;-36
2023/04/23 01:41:17;;;;;;;20.23;13.80;;;;;;;12.86;100.00;100159.13;7396072;19;20446;-38
2023/04/23 01:43:47;;;;;;;23.33;14.57;;;;;;;12.82;100.00;100154.75;7399796;19;20420;-36
2023/04/23 01:46:16;;;;;;;22.10;14.90;;;;;;;12.79;100.00;100150.38;7397872;19;20467;-35
2023/04/23 01:48:46;;;;;;;21.13;14.37;;;;;;;12.78;100.00;100148.59;7402958;19;20417;-37
2023/04/23 01:51:16;;;;;;;25.00;15.10;;;;;;;12.75;100.00;100148.53;7395961;19;20443;-37
2023/04/23 01:53:48;;;;;;;20.60;14.67;;;;;;;12.74;100.00;100140.72;7398842;19;20456;-36
2023/04/23 01:56:18;;;;;;;20.23;11.90;;;;;;;12.70;100.00;100176.00;7397859;19;20484;-36
2023/04/23 01:58:48;;;;;;;38.00;23.60;;;;;;;11.66;100.00;100191.41;7399290;19;20460;-37
2023/04/23 02:01:17;;;;;;;43.83;25.67;;;;;;;10.84;100.00;100197.59;7395237;19;20451;-38
2023/04/23 02:03:47;;;;;;;47.87;28.33;;;;;;;10.35;100.00;100200.28;7398856;19;20396;-36
2023/04/23 02:06:17;;;;;;;52.40;30.77;;;;;;;10.07;100.00;100196.78;7397116;19;20441;-35
2023/04/23 02:08:50;;;;;;;55.53;31.97;;;;;;;9.82;100.00;100208.78;7398096;19;20974;-36
2023/04/23 02:11:20;;;;;;;56.63;28.70;;;;;;;9.62;100.00;100233.81;7395964;19;20963;-35
2023/04/23 02:13:51;;;;;;;57.13;34.03;;;;;;;9.48;100.00;100230.75;7399292;19;21022;-36
2023/04/23 02:16:23;;;;;;;57.70;32.87;;;;;;;9.41;100.00;100263.09;7396412;19;20451;-36
2023/04/23 02:18:53;;;;;;;62.37;36.03;;;;;;;9.29;100.00;100245.47;7399450;19;20412;-37
2023/04/23 02:21:23;;;;;;;63.47;34.77;;;;;;;9.23;100.00;100238.38;7395996;19;20790;-37
2023/04/23 02:23:56;;;;;;;68.20;35.73;;;;;;;9.12;100.00;100232.81;7398614;19;20403;-37
2023/04/23 02:26:26;;;;;;;64.80;35.40;;;;;;;9.10;100.00;100239.63;7396285;19;20450;-37
2023/04/23 02:28:55;;;;;;;61.77;34.80;;;;;;;9.09;100.00;100229.25;7398616;19;20440;-35
2023/04/23 02:31:25;;;;;;;64.20;33.87;;;;;;;9.06;100.00;100232.56;7395141;19;20447;-36
2023/04/23 02:33:54;;;;;;;60.40;34.20;;;;;;;9.02;100.00;100231.56;7398928;19;20510;-35
2023/04/23 02:36:24;;;;;;;70.87;38.40;;;;;;;8.93;100.00;100220.03;7396305;19;20828;-36
2023/04/23 02:38:57;;;;;;;69.40;37.47;;;;;;;8.86;100.00;100214.66;7398845;19;20411;-35
2023/04/23 02:41:26;;;;;;;64.87;37.23;;;;;;;8.88;100.00;100217.28;7394518;19;21126;-35
2023/04/23 02:43:56;;;;;;;73.13;38.27;;;;;;;8.89;100.00;100203.63;7398054;19;20416;-35
2023/04/23 02:46:26;;;;;;;76.43;37.67;;;;;;;8.88;100.00;100217.28;7396111;19;20475;-35
2023/04/23 02:48:55;;;;;;;79.17;39.13;;;;;;;8.84;100.00;100216.31;7398144;19;20407;-35
2023/04/23 02:51:25;;;;;;;75.37;40.10;;;;;;;8.85;100.00;100212.00;7395072;19;20455;-38
2023/04/23 02:53:57;;;;;;;82.50;42.00;;;;;;;8.84;100.00;100210.25;7400586;19;20795;-35
2023/04/23 02:56:27;;;;;;;83.57;40.17;;;;;;;8.91;100.00;100207.13;7395666;19;20449;-36
2023/04/23 02:58:56;;;;;;;76.17;37.03;;;;;;;8.85;100.00;100209.44;7397942;19;20403;-36
2023/04/23 03:01:26;;;;;;;81.43;40.50;;;;;;;8.78;100.00;100206.63;7394111;19;20459;-36
2023/04/23 03:03:56;;;;;;;78.83;39.67;;;;;;;8.78;100.00;100198.03;7397976;19;20827;-35
2023/04/23 03:06:26;;;;;;;67.80;35.97;;;;;;;8.72;100.00;100201.22;7395307;19;20462;-36
2023/04/23 03:08:58;;;;;;;63.63;36.97;;;;;;;8.72;100.00;100170.38;7397984;19;20419;-35
2023/04/23 03:11:27;;;;;;;77.57;37.73;;;;;;;8.69;100.00;100118.81;7394616;19;20471;-36
2023/04/23 03:13:57;;;;;;;71.87;35.23;;;;;;;8.63;100.00;100070.56;7398030;19;20407;-36
2023/04/23 03:16:28;;;;;;;68.67;36.77;;;;;;;8.64;100.00;100048.31;7395171;19;20447;-35
2023/04/23 03:18:58;;;;;;;62.67;35.23;;;;;;;8.70;100.00;100030.56;7398073;19;20432;-37
2023/04/23 03:21:28;;;;;;;58.47;32.43;;;;;;;8.66;100.00;100022.66;7394336;19;21435;-35
2023/04/23 03:24:00;;;;;;;61.17;33.67;;;;;;;8.57;100.00;100021.47;7397248;19;20943;-36
2023/04/23 03:26:30;;;;;;;59.00;32.13;;;;;;;8.58;100.00;100012.09;7394862;19;20455;-36
2023/04/23 03:28:59;;;;;;;70.80;33.80;;;;;;;8.58;100.00;100004.38;7397748;19;20450;-36
2023/04/23 03:31:29;;;;;;;53.90;30.23;;;;;;;8.55;100.00;100004.28;7393703;19;20495;-36
2023/04/23 03:33:58;;;;;;;62.40;29.93;;;;;;;8.46;100.00;100008.19;7397239;19;20457;-35
2023/04/23 03:36:28;;;;;;;52.77;27.17;;;;;;;8.46;100.00;99997.91;7394836;19;20794;-38
2023/04/23 03:39:01;;;;;;;49.43;26.27;;;;;;;8.40;100.00;99999.38;7397425;19;20764;-40
2023/04/23 03:41:30;;;;;;;42.63;22.57;;;;;;;8.33;100.00;100003.41;7394379;19;20475;-36
2023/04/23 03:44:00;;;;;;;36.03;18.97;;;;;;;8.27;100.00;99996.34;7397911;19;20424;-36
2023/04/23 03:46:29;;;;;;;34.40;18.33;;;;;;;8.18;100.00;99996.84;7394658;19;20526;-40
2023/04/23 03:48:59;;;;;;;30.07;18.60;;;;;;;8.21;100.00;99998.66;7397156;19;20436;-36
2023/04/23 03:51:28;;;;;;;29.77;16.87;;;;;;;8.16;100.00;99998.47;7390534;19;20463;-37
2023/04/23 03:54:01;;;;;;;30.67;14.57;;;;;;;8.08;100.00;100002.44;7396752;19;20408;-39
2023/04/23 03:56:30;;;;;;;24.13;13.67;;;;;;;8.09;100.00;99988.75;7393920;19;20447;-36
2023/04/23 03:59:00;;;;;;;20.10;12.50;;;;;;;8.02;100.00;99999.63;7399009;19;20741;-37
2023/04/23 04:01:31;;;;;;;21.93;11.80;;;;;;;8.02;100.00;99994.47;7393092;19;20477;-36
2023/04/23 04:04:01;;;;;;;23.23;13.37;;;;;;;8.11;100.00;99998.28;7395272;19;20407;-35
2023/04/23 04:06:31;;;;;;;21.90;11.83;;;;;;;8.14;100.00;100000.09;7394005;19;20801;-37
2023/04/23 04:09:03;;;;;;;17.40;11.90;;;;;;;8.14;100.00;100000.09;7394970;19;20404;-38
2023/04/23 04:11:33;;;;;;;16.93;11.70;;;;;;;8.09;100.00;100001.63;7393001;19;20495;-36
2023/04/23 04:14:02;;;;;;;20.23;11.10;;;;;;;8.08;100.00;99997.28;7394516;19;20458;-37
2023/04/23 04:16:32;;;;;;;22.00;11.40;;;;;;;8.09;100.00;100009.31;7392693;19;20439;-36
2023/04/23 04:19:02;;;;;;;18.23;9.90;;;;;;;8.18;100.00;100007.13;7396596;19;20417;-36
2023/04/23 04:21:32;;;;;;;18.60;10.40;;;;;;;8.23;100.00;100013.34;7392497;19;20475;-36
2023/04/23 04:24:05;;;;;;;20.47;10.67;;;;;;;8.09;100.00;100012.78;7394603;19;20411;-35
2023/04/23 04:26:35;;;;;;;20.23;10.67;;;;;;;8.16;100.00;100013.03;7392012;19;20463;-37
2023/04/23 04:29:05;;;;;;;19.70;9.83;;;;;;;8.15;100.00;100011.28;7393798;19;20411;-37
2023/04/23 04:31:35;;;;;;;17.30;10.70;;;;;;;8.11;100.00;100010.28;7391722;19;20467;-37
2023/04/23 04:34:06;;;;;;;17.53;9.60;;;;;;;8.08;100.00;100026.44;7394625;19;20399;-37
2023/04/23 04:36:35;;;;;;;15.50;9.17;;;;;;;8.19;100.00;100021.72;7390692;19;20458;-36
2023/04/23 04:39:07;;;;;;;16.17;9.90;;;;;;;8.32;100.00;100014.50;7394333;19;20431;-36
2023/04/23 04:41:38;;;;;;;23.53;10.40;;;;;;;8.24;100.00;100017.66;7392168;19;20463;-36
2023/04/23 04:44:08;;;;;;;20.93;9.57;;;;;;;8.26;100.00;100025.44;7394066;19;20444;-37
2023/04/23 04:46:39;;;;;;;20.00;9.40;;;;;;;8.07;100.00;100018.66;7391570;19;20451;-35
2023/04/23 04:49:09;;;;;;;15.90;9.40;;;;;;;8.08;100.00;100017.84;7393805;19;20399;-37
2023/04/23 04:51:40;;;;;;;19.37;9.90;;;;;;;8.15;100.00;100024.97;7391998;19;20483;-35
2023/04/23 04:54:12;;;;;;;15.67;9.73;;;;;;;8.24;100.00;100027.94;7393438;19;20407;-36
2023/04/23 04:56:41;;;;;;;15.53;9.33;;;;;;;8.17;100.00;100027.63;7392851;19;20431;-36
2023/04/23 04:59:11;;;;;;;17.20;9.77;;;;;;;8.01;100.00;100037.28;7393421;19;20392;-36
2023/04/23 05:01:41;;;;;;;16.63;10.03;;;;;;;8.08;100.00;100039.28;7390190;19;20479;-37
2023/04/23 05:04:10;;;;;;;18.00;10.70;;;;;;;8.13;100.00;100033.44;7392204;19;20419;-36
2023/04/23 05:06:40;;;;;;;20.77;11.90;;;;;;;8.12;100.00;100037.72;7390777;19;20468;-37
2023/04/23 05:09:12;;;;;;;22.43;13.00;;;;;;;8.04;100.00;100039.09;7395140;19;20400;-37
2023/04/23 05:11:42;;;;;;;22.13;12.27;;;;;;;7.98;100.00;100042.28;7386141;19;20463;-36
2023/04/23 05:14:12;;;;;;;26.03;13.50;;;;;;;7.99;100.00;100044.03;7392965;19;20440;-37
2023/04/23 05:16:41;;;;;;;25.23;12.73;;;;;;;7.92;100.00;100053.22;7391730;19;20991;-37
2023/04/23 05:19:11;;;;;;;22.37;12.87;;;;;;;7.89;100.00;100053.06;7393398;19;20395;-36
2023/04/23 05:21:41;;;;;;;25.90;13.73;;;;;;;7.91;100.00;100054.03;7390733;19;21009;-35
2023/04/23 05:24:13;;;;;;;23.63;12.93;;;;;;;7.91;100.00;100059.16;7394184;19;20420;-35
2023/04/23 05:26:43;;;;;;;23.53;14.50;;;;;;;7.95;100.00;100058.47;7388294;19;20443;-36
2023/04/23 05:29:16;;;;;;;27.80;15.27;;;;;;;8.04;100.00;100060.53;7392315;19;21137;-36
2023/04/23 05:31:46;;;;;;;23.30;14.50;;;;;;;7.97;100.00;100054.28;7393426;19;20463;-36
2023/04/23 05:34:16;;;;;;;23.37;14.17;;;;;;;7.93;100.00;100060.09;7394593;19;20436;-37
2023/04/23 05:36:45;;;;;;;22.17;13.40;;;;;;;7.99;100.00;100062.03;7394194;19;20453;-37
2023/04/23 05:39:17;;;;;;;25.10;13.10;;;;;;;7.92;100.00;100066.06;7392746;19;20407;-36
2023/04/23 05:41:47;;;;;;;18.57;10.60;;;;;;;7.83;100.00;100070.78;7393971;19;20466;-36
2023/04/23 05:44:17;;;;;;;16.20;10.17;;;;;;;7.81;100.00;100075.00;7392367;19;20407;-38
2023/04/23 05:46:46;;;;;;;19.10;9.97;;;;;;;7.81;100.00;100067.28;7393826;19;20534;-37
2023/04/23 05:49:16;;;;;;;15.50;8.93;;;;;;;7.86;100.00;100070.94;7393985;19;20407;-36
2023/04/23 05:51:45;;;;;;;16.10;9.60;;;;;;;7.76;100.00;100079.06;7393227;19;20479;-36
2023/04/23 05:54:17;;;;;;;17.80;9.73;;;;;;;7.69;100.00;100076.22;7394024;19;20410;-39
2023/04/23 05:56:47;;;;;;;16.47;9.27;;;;;;;7.67;100.00;100069.25;7394509;19;20455;-36
2023/04/23 05:59:17;;;;;;;16.07;9.80;;;;;;;7.67;100.00;100067.59;7391713;19;20423;-37
2023/04/23 06:01:46;;;;;;;17.33;9.50;;;;;;;7.67;100.00;100075.28;7392861;19;20791;-37
2023/04/23 06:04:16;;;;;;;15.83;9.63;;;;;;;7.66;100.00;100077.78;7392219;19;20781;-36
2023/04/23 06:06:46;;;;;;;22.80;10.70;;;;;;;7.69;100.00;100083.94;7392718;19;20451;-38
2023/04/23 06:09:18;;;;;;;18.90;10.33;;;;;;;7.70;100.00;100084.81;7390872;19;20942;-35
2023/04/23 06:11:49;;;;;;;19.50;11.43;;;;;;;7.68;100.00;100092.44;7392293;19;20465;-35
2023/04/23 06:14:18;;;;;;;19.77;10.67;;;;;;;7.73;100.00;100092.63;7394115;19;20757;-36
2023/04/23 06:16:48;;;;;;;21.90;10.47;;;;;;;7.67;100.00;100090.69;7399929;19;21015;-36
2023/04/23 06:19:18;;;;;;;18.10;10.00;;;;;;;7.69;100.00;100089.06;7398287;19;20411;-36
2023/04/23 06:21:47;;;;;;;18.40;10.63;;;;;;;7.73;100.00;100094.34;7399379;19;20459;-38
2023/04/23 06:24:20;;;;;;;19.13;10.20;;;;;;;7.64;100.00;100095.69;7398080;19;20736;-37
2023/04/23 06:26:49;;;;;;;22.20;11.77;;;;;;;7.57;100.00;100083.41;7399572;19;20466;-36
2023/04/23 06:29:19;;;;;;;17.03;9.43;;;;;;;7.69;100.00;100098.44;7394156;19;20508;-36
2023/04/23 06:31:49;;;;;;;17.70;9.77;;;;;;;7.78;100.00;100087.69;7399400;19;20957;-36
2023/04/23 06:34:21;;;;;;;16.90;9.80;;;;;;;7.83;100.00;100094.78;7395479;19;20427;-36
2023/04/23 06:36:52;;;;;;;18.50;10.70;;;;;;;7.85;100.00;100097.44;7397928;19;20489;-35
2023/04/23 06:39:25;;;;;;;17.10;10.07;;;;;;;7.83;100.00;100105.06;7396354;19;20411;-36
2023/04/23 06:41:55;;;;;;;16.30;10.60;;;;;;;7.93;100.00;100119.19;7397629;19;20962;-38
2023/04/23 06:44:24;;;;;;;21.83;10.50;;;;;;;7.97;100.00;100126.22;7394627;19;20415;-37
2023/04/23 06:46:54;;;;;;;14.83;9.57;;;;;;;7.99;100.00;100133.97;7397676;19;20435;-39
2023/04/23 06:49:24;;;;;;;19.30;9.83;;;;;;;8.11;100.00;100133.63;7395751;19;20406;-37
2023/04/23 06:51:53;;;;;;;22.37;10.67;;;;;;;7.86;100.00;100139.38;7392125;19;20999;-36
2023/04/23 06:54:28;;;;;;;39.60;13.80;;;;;;;7.87;100.00;100134.31;7393888;19;20475;-35
2023/04/23 06:56:58;;;;;;;20.47;9.37;;;;;;;7.89;100.00;100153.25;7397984;19;20515;-35
2023/04/23 06:59:27;;;;;;;12.60;8.20;;;;;;;7.96;100.00;100196.34;7391628;19;21071;-38
2023/04/23 07:01:57;;;;;;;18.37;8.70;;;;;;;8.04;100.00;100249.75;7396193;19;20443;-35
2023/04/23 07:04:27;;;;;;;14.30;7.90;;;;;;;7.89;100.00;100298.78;7393768;19;20408;-39
2023/04/23 07:06:56;;;;;;;13.70;7.57;;;;;;;7.91;100.00;100349.44;7396769;19;20774;-36
2023/04/23 07:09:29;;;;;;;18.50;8.50;;;;;;;7.92;100.00;100376.88;7393817;19;20411;-36
2023/04/23 07:12:00;;;;;;;26.00;10.70;;;;;;;8.01;100.00;100398.66;7397206;19;20462;-36
2023/04/23 07:14:30;;;;;;;17.43;8.27;;;;;;;7.89;100.00;100412.69;7393418;19;20419;-35
2023/04/23 07:16:59;;;;;;;15.30;8.70;;;;;;;7.91;100.00;100423.03;7396657;19;20400;-37
2023/04/23 07:19:29;;;;;;;22.80;10.43;;;;;;;8.04;100.00;100439.91;7393518;19;20433;-37
2023/04/23 07:21:59;;;;;;;22.23;10.37;;;;;;;8.13;100.00;100455.75;7395663;19;20456;-37
2023/04/23 07:24:31;;;;;;;17.63;7.80;;;;;;;8.00;100.00;100464.56;7394197;19;20436;-35
2023/04/23 07:27:01;;;;;;;15.33;8.30;;;;;;;7.98;100.00;100461.06;7396505;19;20483;-36
2023/04/23 07:29:31;;;;;;;9.67;6.40;;;;;;;7.93;100.00;100468.56;7390911;19;20450;-37
2023/04/23 07:32:00;;;;;;;15.17;8.63;;;;;;;8.06;100.00;100472.56;7394519;19;20860;-35
2023/04/23 07:34:30;;;;;;;16.27;7.90;;;;;;;8.03;100.00;100479.25;7395258;19;20412;-37
2023/04/23 07:37:00;;;;;;;21.20;8.70;;;;;;;8.17;100.00;100483.38;7395727;19;20954;-35
2023/04/23 07:39:32;;;;;;;16.10;9.20;;;;;;;8.31;100.00;100483.13;7395462;19;20959;-36
2023/04/23 07:42:02;;;;;;;13.40;7.50;;;;;;;8.30;100.00;100489.09;7392267;19;20518;-35
2023/04/23 07:44:31;;;;;;;14.03;7.37;;;;;;;8.35;100.00;100492.72;7395759;19;20427;-35
2023/04/23 07:47:01;;;;;;;18.67;7.63;;;;;;;8.20;100.00;100490.34;7395068;19;20418;-36
2023/04/23 07:49:30;;;;;;;14.03;7.67;;;;;;;8.26;100.00;100493.22;7394058;19;20412;-37
2023/04/23 07:52:00;;;;;;;16.03;10.10;;;;;;;8.38;100.00;100498.03;7394848;19;20982;-37
2023/04/23 07:54:32;;;;;;;11.60;6.77;;;;;;;8.35;100.00;100503.91;7391552;19;20467;-37
2023/04/23 07:57:02;;;;;;;11.17;7.60;;;;;;;8.43;100.00;100505.94;7395962;19;20411;-36
2023/04/23 07:59:31;;;;;;;12.83;6.50;;;;;;;8.48;100.00;100510.53;7392269;19;20439;-35
2023/04/23 08:02:01;;;;;;;12.73;6.47;;;;;;;8.49;100.00;100514.84;7395370;19;20439;-37
2023/04/23 08:04:30;;;;;;;14.07;7.30;;;;;;;8.53;100.00;100517.56;7391046;19;20450;-37
2023/04/23 08:07:00;;;;;;;12.73;7.07;;;;;;;8.57;100.00;100519.50;7395135;19;20400;-35
2023/04/23 08:09:32;;;;;;;35.93;13.10;;;;;;;8.85;100.00;100510.44;7395516;19;20399;-35
2023/04/23 08:12:02;;;;;;;23.87;9.57;;;;;;;8.60;100.00;100507.66;7391943;19;20471;-36
2023/04/23 08:14:32;;;;;;;13.60;7.60;;;;;;;8.59;100.00;100520.44;7395349;19;20521;-35
2023/04/23 08:17:01;;;;;;;11.50;6.80;;;;;;;8.68;100.00;100518.31;7392607;19;20450;-36
2023/04/23 08:19:33;;;;;;;13.40;7.10;;;;;;;8.74;100.00;100518.56;7394380;19;20437;-39
2023/04/23 08:22:03;;;;;;;20.10;8.47;;;;;;;8.69;100.00;100520.06;7390682;19;20447;-35
2023/04/23 08:24:35;;;;;;;23.97;10.10;;;;;;;8.79;100.00;100516.22;7397040;19;20415;-37
2023/04/23 08:27:05;;;;;;;13.73;7.63;;;;;;;8.87;100.00;100524.28;7392186;19;20443;-37
2023/04/23 08:29:35;;;;;;;30.97;10.37;;;;;;;8.73;100.00;100516.78;7394490;19;20420;-37
2023/04/23 08:32:04;;;;;;;14.40;7.77;;;;;;;8.73;100.00;100515.94;7390135;19;20458;-37
2023/04/23 08:34:34;;;;;;;12.77;6.90;;;;;;;8.83;100.00;100507.81;7394055;19;20399;-37
2023/04/23 08:37:04;;;;;;;11.87;6.90;;;;;;;9.03;100.00;100503.53;7390332;19;20475;-36
2023/04/23 08:39:40;;;;;;;19.33;9.07;;;;;;;9.07;100.00;100506.25;7394341;19;20432;-37
2023/04/23 08:42:13;;;;;;;14.50;6.80;;;;;;;9.01;100.00;100510.31;7390113;19;20459;-36
2023/04/23 08:44:43;;;;;;;15.67;7.40;;;;;;;8.90;100.00;100509.84;7397212;19;20432;-36
2023/04/23 08:47:13;;;;;;;14.60;6.83;;;;;;;8.89;100.00;100522.66;7391980;19;20447;-36
2023/04/23 08:49:44;;;;;;;15.67;7.80;;;;;;;8.99;100.00;100522.25;7394759;19;20416;-38
2023/04/23 08:52:18;;;;;;;12.73;7.00;;;;;;;9.07;100.00;100527.72;7389190;19;20447;-35
2023/04/23 08:54:52;;;;;;;55.53;24.80;;;;;;;9.36;100.00;100527.22;7396190;19;20500;-35
2023/04/23 08:57:21;;;;;;;15.30;6.00;;;;;;;9.29;100.00;100519.25;7392078;19;20443;-36
2023/04/23 08:59:52;;;;;;;11.00;6.80;;;;;;;9.45;100.00;100530.22;7394056;19;20414;-38
2023/04/23 09:02:21;;;;;;;18.07;8.30;;;;;;;9.31;100.00;100540.81;7387956;19;20476;-37
2023/04/23 09:04:53;;;;;;;24.63;10.23;;;;;;;9.47;100.00;100546.59;7393693;19;20410;-35
2023/04/23 09:07:24;;;;;;;14.97;7.80;;;;;;;9.52;100.00;100539.97;7387145;19;20896;-37
2023/04/23 09:09:56;;;;;;;11.40;6.50;;;;;;;9.68;100.00;100530.28;7393096;19;20416;-36
2023/04/23 09:12:26;;;;;;;11.13;6.60;;;;;;;9.91;100.00;100536.41;7389668;19;20455;-40
2023/04/23 09:14:56;;;;;;;13.97;7.50;;;;;;;9.98;100.00;100543.56;7393385;19;20419;-37
2023/04/23 09:17:26;;;;;;;9.90;6.40;;;;;;;10.06;100.00;100551.59;7390276;19;20447;-38
2023/04/23 09:19:56;;;;;;;21.53;9.00;;;;;;;10.09;100.00;100553.41;7393672;19;20403;-35
2023/04/23 09:22:42;;;;;;;9.83;5.43;;;;;;;10.26;100.00;100549.81;7389025;19;21003;-37
2023/04/23 09:25:19;;;;;;;9.20;5.40;;;;;;;10.07;100.00;100550.81;7387655;19;20411;-36
2023/04/23 09:27:50;;;;;;;10.60;5.87;;;;;;;10.08;100.00;100552.56;7392879;19;20400;-36
2023/04/23 09:30:22;;;;;;;11.23;6.67;;;;;;;10.34;100.00;100546.66;7388257;19;21010;-36
2023/04/23 09:32:53;;;;;;;10.70;6.00;;;;;;;10.37;100.00;100539.94;7392072;19;20443;-36
2023/04/23 09:35:23;;;;;;;10.47;6.00;;;;;;;10.60;100.00;100533.94;7389253;19;20425;-36
2023/04/23 09:37:54;;;;;;;9.00;6.17;;;;;;;10.73;100.00;100543.03;7394393;19;20407;-35
2023/04/23 09:40:29;;;;;;;10.60;6.57;;;;;;;10.94;100.00;100546.38;7388682;19;20396;-35
2023/04/23 09:42:59;;;;;;;9.13;5.67;;;;;;;11.10;100.00;100565.03;7392056;19;20442;-35
2023/04/23 09:45:31;;;;;;;11.60;6.10;;;;;;;11.20;100.00;100580.06;7386168;19;20418;-35
2023/04/23 09:48:01;;;;;;;14.70;7.20;;;;;;;11.54;100.00;100576.91;7394384;19;20416;-36
2023/04/23 09:50:35;;;;;;;9.37;6.03;;;;;;;11.82;100.00;100590.78;7393996;19;20415;-36
2023/04/23 09:53:05;;;;;;;13.80;6.47;;;;;;;12.18;100.00;100573.88;7398048;19;20452;-36
2023/04/23 09:55:39;;;;;;;10.83;6.70;;;;;;;12.40;100.00;100578.00;7394808;19;20431;-35
2023/04/23 09:58:14;;;;;;;11.17;6.70;;;;;;;12.54;100.00;100581.94;7397829;19;20415;-35
2023/04/23 10:00:44;;;;;;;11.83;6.53;;;;;;;12.26;100.00;100591.38;7394523;19;20417;-35
2023/04/23 10:03:14;;;;;;;14.63;6.23;;;;;;;12.26;100.00;100600.88;7397518;19;20439;-35
2023/04/23 10:05:45;;;;;;;10.67;5.90;;;;;;;12.74;100.00;100576.47;7392285;19;20422;-36
2023/04/23 10:08:29;;;;;;;12.40;6.70;;;;;;;12.88;100.00;100586.38;7397302;19;20528;-36
2023/04/23 10:11:02;;;;;;;12.10;7.17;;;;;;;12.43;100.00;100591.06;7394766;19;20431;-35
2023/04/23 10:13:49;;;;;;;13.40;6.37;;;;;;;12.39;100.00;100578.84;7398114;19;20399;-36
2023/04/23 10:16:19;;;;;;;10.57;6.80;;;;;;;12.80;100.00;100566.31;7394355;19;20439;-37
2023/04/23 10:18:55;;;;;;;11.93;7.27;;;;;;;12.94;100.00;100571.91;7398529;19;21042;-36
2023/04/23 10:21:28;;;;;;;11.03;5.17;;;;;;;12.71;100.00;100585.88;7394953;19;20806;-35
2023/04/23 10:24:15;;;;;;;12.30;7.30;;;;;;;12.71;100.00;100589.31;7397020;19;20955;-36
2023/04/23 10:26:47;;;;;;;11.77;6.53;;;;;;;13.13;100.00;100589.66;7396087;19;20471;-35
2023/04/23 10:29:18;;;;;;;14.07;8.57;;;;;;;12.99;100.00;100594.44;7397125;19;20790;-36
2023/04/23 10:31:48;;;;;;;12.30;7.47;;;;;;;13.07;100.00;100596.41;7395020;19;20854;-36
2023/04/23 10:34:19;;;;;;;11.90;7.63;;;;;;;13.35;100.00;100591.16;7396388;19;20431;-36
2023/04/23 10:36:48;;;;;;;11.97;6.13;;;;;;;13.63;100.00;100600.59;7395219;19;20455;-36
2023/04/23 10:39:19;;;;;;;11.63;7.40;;;;;;;13.35;100.00;100602.38;7396982;19;20435;-35
2023/04/23 10:42:01;;;;;;;12.20;6.97;;;;;;;13.18;100.00;100598.44;7394232;19;20457;-35
2023/04/23 10:44:35;;;;;;;10.53;6.13;;;;;;;13.42;100.00;100602.53;7396311;19;21246;-36
2023/04/23 10:47:24;;;;;;;15.93;9.47;;;;;;;13.39;100.00;100612.84;7395372;19;20515;-35
2023/04/23 10:49:54;;;;;;;15.20;8.77;;;;;;;13.44;100.00;100601.75;7397549;19;20753;-36
2023/04/23 10:52:24;;;;;;;14.53;7.97;;;;;;;13.63;100.00;100603.19;7393296;19;20455;-35
2023/04/23 10:54:59;;;;;;;16.80;7.27;;;;;;;13.78;100.00;100596.63;7397221;19;20412;-35
2023/04/23 10:57:31;;;;;;;12.27;7.70;;;;;;;13.88;100.00;100588.25;7395530;19;20453;-37
2023/04/23 11:00:04;;;;;;;12.47;7.20;;;;;;;14.24;100.00;100585.63;7397338;19;20407;-35
2023/04/23 11:02:45;;;;;;;23.43;10.53;;;;;;;14.00;100.00;100592.00;7392418;19;20462;-37
2023/04/23 11:05:15;;;;;;;10.87;6.73;;;;;;;14.43;100.00;100587.84;7392806;19;20422;-36
2023/04/23 11:07:44;;;;;;;17.93;9.13;;;;;;;14.68;100.00;100578.00;7396056;19;20408;-35
2023/04/23 11:10:15;;;;;;;15.47;8.00;;;;;;;14.62;100.00;100579.59;7393145;19;20423;-35
2023/04/23 11:12:47;;;;;;;24.03;12.60;;;;;;;14.31;100.00;100585.84;7396701;19;20439;-36
2023/04/23 11:15:20;;;;;;;16.37;8.30;;;;;;;14.35;100.00;100591.13;7392436;19;20419;-35
2023/04/23 11:18:05;;;;;;;20.53;7.70;;;;;;;14.10;100.00;100599.16;7394504;19;20400;-36
2023/04/23 11:20:35;;;;;;;10.80;6.80;;;;;;;14.31;100.00;100610.94;7391629;19;20950;-35
2023/04/23 11:23:08;;;;;;;17.03;9.97;;;;;;;14.48;100.00;100598.34;7396774;19;20452;-37
2023/04/23 11:25:38;;;;;;;20.50;11.27;;;;;;;14.61;100.00;100594.28;7391255;19;20415;-35
2023/04/23 11:28:10;;;;;;;19.37;10.37;;;;;;;14.51;100.00;100607.91;7395393;19;20396;-35